createdAt,value
2023-01-15T00:01:59.694Z,85.31
2023-01-15T00:04:26.186Z,85.52
2023-01-15T00:06:54.542Z,85.62
2023-01-15T00:09:21.047Z,85.06
2023-01-15T00:11:47.657Z,84.86
2023-01-15T00:14:14.333Z,85.15
2023-01-15T00:16:40.919Z,85.09
2023-01-15T00:19:10.918Z,84.93
2023-01-15T00:21:37.570Z,85.21
2023-01-15T00:24:22.677Z,85.54
2023-01-15T00:27:07.769Z,84.78
2023-01-15T00:29:34.676Z,85.39
2023-01-15T00:32:08.370Z,84.82
2023-01-15T00:34:36.028Z,85.15
2023-01-15T00:37:02.931Z,84.77
2023-01-15T00:39:33.448Z,84.89
2023-01-15T00:42:00.052Z,84.68
2023-01-15T00:44:26.566Z,84.89
2023-01-15T00:46:53.156Z,85.14
2023-01-15T00:49:20.978Z,84.96
2023-01-15T00:51:48.524Z,85.55
2023-01-15T00:54:15.034Z,84.51
2023-01-15T00:56:41.596Z,84.60
2023-01-15T00:59:08.209Z,84.31
2023-01-15T01:01:35.032Z,84.76
2023-01-15T01:04:01.716Z,84.67
2023-01-15T01:06:28.635Z,84.41
2023-01-15T01:08:55.768Z,84.34
2023-01-15T01:11:26.582Z,84.37
2023-01-15T01:13:56.977Z,83.81
2023-01-15T01:16:33.667Z,84.32
2023-01-15T01:19:01.789Z,84.75
2023-01-15T01:21:28.390Z,84.14
2023-01-15T01:23:55.156Z,84.66
2023-01-15T01:26:22.113Z,84.67
2023-01-15T01:28:50.532Z,84.17
2023-01-15T01:31:17.431Z,83.85
2023-01-15T01:33:43.985Z,84.41
2023-01-15T01:36:10.969Z,84.54
2023-01-15T01:38:37.473Z,84.06
2023-01-15T01:41:04.466Z,84.46
2023-01-15T01:43:31.123Z,83.83
2023-01-15T01:45:59.033Z,83.79
2023-01-15T01:48:29.736Z,83.99
2023-01-15T01:51:00.412Z,83.94
2023-01-15T01:53:29.364Z,84.73
2023-01-15T01:55:56.450Z,84.58
2023-01-15T01:58:24.874Z,84.64
2023-01-15T02:00:52.127Z,84.27
2023-01-15T02:03:20.646Z,84.41
2023-01-15T02:05:54.356Z,84.59
2023-01-15T02:08:22.231Z,85.36
2023-01-15T02:10:52.535Z,85.33
2023-01-15T02:13:38.138Z,86.37
2023-01-15T02:16:23.429Z,87.26
2023-01-15T02:19:11.118Z,86.35
2023-01-15T02:21:52.521Z,87.17
2023-01-15T02:24:58.057Z,87.19
2023-01-15T02:27:25.318Z,87.69
2023-01-15T02:30:09.284Z,87.23
2023-01-15T02:32:53.201Z,87.57
2023-01-15T02:35:27.204Z,88.08
2023-01-15T02:37:56.939Z,87.44
2023-01-15T02:40:25.034Z,87.79
2023-01-15T02:42:53.400Z,88.31
2023-01-15T02:45:27.050Z,88.26
2023-01-15T02:47:54.942Z,88.39
2023-01-15T02:50:26.708Z,88.57
2023-01-15T02:52:56.766Z,88.84
2023-01-15T02:55:30.913Z,89.72
2023-01-15T02:58:00.157Z,89.46
2023-01-15T03:00:30.378Z,89.52
2023-01-15T03:03:08.222Z,89.72
2023-01-15T03:05:51.176Z,89.21
2023-01-15T03:08:18.352Z,89.31
2023-01-15T03:10:53.300Z,89.40
2023-01-15T03:13:53.529Z,89.22
2023-01-15T03:16:35.302Z,88.66
2023-01-15T03:19:06.960Z,88.29
2023-01-15T03:21:46.795Z,88.78
2023-01-15T03:24:19.651Z,88.64
2023-01-15T03:26:46.311Z,88.98
2023-01-15T03:29:14.192Z,88.53
2023-01-15T03:31:40.941Z,88.48
2023-01-15T03:34:07.548Z,89.22
2023-01-15T03:36:34.378Z,89.22
2023-01-15T03:39:02.207Z,89.64
2023-01-15T03:41:50.697Z,89.85
2023-01-15T03:44:35.825Z,89.86
2023-01-15T03:47:21.185Z,90.09
2023-01-15T03:50:02.878Z,89.57
2023-01-15T03:53:07.699Z,89.79
2023-01-15T03:55:45.693Z,89.92
2023-01-15T03:58:51.081Z,89.77
2023-01-15T04:01:30.167Z,89.33
2023-01-15T04:03:58.483Z,89.61
2023-01-15T04:06:28.158Z,88.97
2023-01-15T04:08:55.514Z,89.43
2023-01-15T04:11:24.633Z,89.69
2023-01-15T04:13:54.584Z,89.38
2023-01-15T04:16:36.140Z,89.47
2023-01-15T04:19:03.539Z,88.18
2023-01-15T04:21:32.842Z,88.41
2023-01-15T04:23:59.687Z,88.15
2023-01-15T04:26:26.293Z,87.83
2023-01-15T04:28:52.982Z,87.67
2023-01-15T04:31:19.941Z,87.57
2023-01-15T04:33:46.529Z,86.97
2023-01-15T04:36:14.548Z,87.07
2023-01-15T04:38:41.387Z,86.69
2023-01-15T04:41:26.434Z,86.07
2023-01-15T04:44:08.087Z,85.81
2023-01-15T04:46:40.211Z,85.03
2023-01-15T04:49:09.815Z,85.77
2023-01-15T04:51:36.639Z,85.71
2023-01-15T04:54:05.542Z,85.92
2023-01-15T04:56:32.923Z,85.73
2023-01-15T04:59:01.626Z,85.70
2023-01-15T05:01:28.595Z,84.76
2023-01-15T05:03:55.205Z,85.17
2023-01-15T05:06:21.740Z,85.88
2023-01-15T05:08:48.307Z,85.80
2023-01-15T05:11:14.882Z,86.14
2023-01-15T05:13:41.393Z,86.05
2023-01-15T05:16:21.407Z,86.46
2023-01-15T05:18:48.052Z,86.53
2023-01-15T05:21:28.973Z,85.92
2023-01-15T05:23:57.311Z,85.88
2023-01-15T05:26:24.896Z,85.85
2023-01-15T05:28:56.857Z,86.21
2023-01-15T05:31:24.372Z,86.33
2023-01-15T05:33:51.442Z,86.62
2023-01-15T05:36:20.828Z,86.60
2023-01-15T05:38:47.431Z,86.12
2023-01-15T05:41:49.007Z,85.99
2023-01-15T05:44:28.919Z,86.44
2023-01-15T05:46:58.284Z,85.95
2023-01-15T05:49:26.611Z,86.09
2023-01-15T05:51:54.132Z,85.99
2023-01-15T05:54:23.253Z,86.12
2023-01-15T05:56:49.843Z,86.30
2023-01-15T05:59:17.983Z,86.43
2023-01-15T06:01:44.500Z,86.23
2023-01-15T06:04:14.134Z,86.19
2023-01-15T06:06:41.852Z,86.60
2023-01-15T06:09:08.325Z,86.23
2023-01-15T06:11:34.833Z,86.62
2023-01-15T06:14:01.726Z,86.42
2023-01-15T06:16:28.262Z,86.23
2023-01-15T06:18:54.749Z,86.44
2023-01-15T06:21:21.577Z,86.56
2023-01-15T06:23:48.065Z,86.46
2023-01-15T06:26:16.870Z,86.21
2023-01-15T06:28:44.582Z,85.56
2023-01-15T06:31:13.375Z,85.89
2023-01-15T06:33:39.938Z,85.55
2023-01-15T06:36:08.935Z,85.53
2023-01-15T06:38:35.463Z,85.80
2023-01-15T06:41:03.024Z,85.42
2023-01-15T06:43:48.207Z,85.60
2023-01-15T06:46:34.005Z,85.79
2023-01-15T06:49:00.528Z,85.95
2023-01-15T06:51:27.230Z,86.29
2023-01-15T06:53:54.254Z,85.84
2023-01-15T06:56:20.770Z,85.83
2023-01-15T06:58:47.361Z,86.05
2023-01-15T07:01:15.463Z,85.49
2023-01-15T07:03:42.148Z,85.72
2023-01-15T07:06:11.041Z,86.22
2023-01-15T07:08:38.101Z,85.87
2023-01-15T07:11:05.978Z,85.52
2023-01-15T07:13:32.915Z,85.51
2023-01-15T07:16:03.567Z,85.88
2023-01-15T07:18:32.943Z,85.52
2023-01-15T07:20:59.541Z,85.90
2023-01-15T07:23:27.172Z,86.46
2023-01-15T07:25:54.437Z,86.47
2023-01-15T07:28:22.248Z,86.44
2023-01-15T07:30:48.750Z,86.60
2023-01-15T07:33:15.334Z,86.20
2023-01-15T07:35:42.215Z,86.12
2023-01-15T07:38:08.701Z,85.83
2023-01-15T07:40:35.209Z,85.76
2023-01-15T07:43:20.496Z,86.48
2023-01-15T07:46:08.032Z,86.30
2023-01-15T07:48:53.154Z,86.04
2023-01-15T07:51:19.661Z,85.77
2023-01-15T07:53:46.112Z,85.80
2023-01-15T07:56:12.724Z,85.49
2023-01-15T07:58:39.218Z,85.75
2023-01-15T08:01:05.866Z,85.49
2023-01-15T08:03:32.490Z,85.93
2023-01-15T08:05:59.161Z,85.66
2023-01-15T08:08:25.859Z,86.13
2023-01-15T08:11:11.387Z,86.10
2023-01-15T08:13:56.226Z,85.77
2023-01-15T08:16:22.798Z,85.68
2023-01-15T08:18:49.292Z,85.27
2023-01-15T08:21:16.429Z,85.63
2023-01-15T08:23:43.469Z,85.53
2023-01-15T08:26:09.941Z,85.51
2023-01-15T08:28:36.449Z,85.81
2023-01-15T08:31:02.883Z,85.89
2023-01-15T08:33:29.391Z,85.22
2023-01-15T08:35:57.357Z,85.68
2023-01-15T08:38:23.948Z,86.11
2023-01-15T08:40:59.525Z,85.54
2023-01-15T08:43:31.377Z,85.72
2023-01-15T08:45:59.419Z,85.38
2023-01-15T08:48:26.829Z,85.32
2023-01-15T08:50:53.376Z,85.20
2023-01-15T08:53:20.218Z,84.84
2023-01-15T08:55:47.646Z,84.63
2023-01-15T08:58:15.081Z,84.48
2023-01-15T09:00:41.915Z,84.31
2023-01-15T09:03:08.439Z,84.03
2023-01-15T09:05:37.020Z,84.06
2023-01-15T09:08:05.511Z,83.67
2023-01-15T09:10:32.306Z,83.50
2023-01-15T09:13:00.625Z,83.63
2023-01-15T09:15:28.615Z,84.11
2023-01-15T09:17:55.890Z,84.15
2023-01-15T09:20:22.523Z,84.36
2023-01-15T09:22:49.363Z,84.53
2023-01-15T09:25:16.766Z,84.01
2023-01-15T09:27:43.422Z,84.02
2023-01-15T09:30:22.868Z,83.88
2023-01-15T09:32:49.396Z,84.42
2023-01-15T09:35:16.134Z,84.11
2023-01-15T09:37:42.769Z,84.18
2023-01-15T09:40:23.326Z,83.77
2023-01-15T09:42:53.244Z,84.03
2023-01-15T09:45:29.483Z,83.45
2023-01-15T09:48:05.175Z,83.60
2023-01-15T09:50:55.796Z,83.11
2023-01-15T09:53:43.631Z,82.66
2023-01-15T09:56:29.887Z,82.87
2023-01-15T09:58:58.196Z,82.89
2023-01-15T10:01:29.487Z,82.58
2023-01-15T10:04:29.457Z,83.10
2023-01-15T10:07:18.283Z,82.18
2023-01-15T10:09:47.581Z,82.81
2023-01-15T10:12:36.705Z,82.61
2023-01-15T10:15:21.112Z,82.95
2023-01-15T10:17:49.849Z,82.43
2023-01-15T10:20:51.374Z,79.81
2023-01-15T10:23:49.751Z,79.75
2023-01-15T10:26:22.441Z,81.25
2023-01-15T10:29:26.804Z,78.27
2023-01-15T10:31:55.576Z,80.98
2023-01-15T10:34:27.946Z,80.29
2023-01-15T10:37:01.233Z,80.77
2023-01-15T10:39:34.945Z,80.21
2023-01-15T10:42:19.300Z,80.09
2023-01-15T10:44:51.043Z,80.31
2023-01-15T10:47:28.607Z,79.07
2023-01-15T10:49:55.902Z,79.89
2023-01-15T10:52:27.476Z,79.48
2023-01-15T10:55:17.385Z,78.29
2023-01-15T10:58:01.830Z,79.44
2023-01-15T11:00:37.205Z,78.78
2023-01-15T11:03:08.473Z,79.03
2023-01-15T11:05:35.892Z,78.37
2023-01-15T11:08:36.928Z,78.02
2023-01-15T11:10:52.805Z,77.76
2023-01-15T11:13:45.147Z,76.16
2023-01-15T11:16:34.773Z,76.34
2023-01-15T11:19:25.020Z,77.84
2023-01-15T11:21:52.466Z,78.33
2023-01-15T11:24:19.522Z,77.56
2023-01-15T11:26:48.662Z,77.79
2023-01-15T11:29:32.111Z,77.65
2023-01-15T11:31:58.640Z,76.73
2023-01-15T11:34:25.143Z,76.68
2023-01-15T11:37:02.495Z,76.33
2023-01-15T11:39:31.188Z,75.99
2023-01-15T11:42:21.394Z,75.88
2023-01-15T11:45:14.824Z,72.82
2023-01-15T11:48:13.214Z,76.37
2023-01-15T11:51:06.998Z,75.56
2023-01-15T11:53:38.408Z,76.74
2023-01-15T11:56:08.687Z,76.16
2023-01-15T11:58:54.345Z,75.97
2023-01-15T12:01:28.476Z,75.94
2023-01-15T12:03:55.681Z,76.17
2023-01-15T12:06:22.789Z,76.02
2023-01-15T12:09:00.392Z,75.57
2023-01-15T12:11:45.361Z,74.78
2023-01-15T12:14:46.519Z,73.12
2023-01-15T12:17:38.449Z,71.00
2023-01-15T12:20:14.317Z,75.28
2023-01-15T12:22:50.570Z,71.28
2023-01-15T12:25:26.190Z,73.33
2023-01-15T12:27:57.619Z,74.60
2023-01-15T12:30:29.584Z,74.86
2023-01-15T12:33:16.286Z,72.57
2023-01-15T12:35:46.754Z,74.61
2023-01-15T12:38:37.103Z,70.93
2023-01-15T12:41:15.501Z,75.02
2023-01-15T12:44:05.350Z,72.41
2023-01-15T12:46:36.866Z,71.75
2023-01-15T12:49:11.417Z,72.80
2023-01-15T12:51:49.367Z,73.65
2023-01-15T12:54:21.522Z,73.84
2023-01-15T12:57:36.675Z,71.73
2023-01-15T13:00:13.513Z,72.92
2023-01-15T13:03:13.968Z,71.92
2023-01-15T13:05:53.203Z,71.65
2023-01-15T13:08:23.843Z,73.82
2023-01-15T13:10:51.037Z,74.02
2023-01-15T13:13:24.623Z,71.93
2023-01-15T13:16:11.915Z,73.68
2023-01-15T13:18:44.758Z,71.93
2023-01-15T13:21:14.816Z,72.35
2023-01-15T13:24:18.628Z,70.92
2023-01-15T13:27:00.583Z,71.48
2023-01-15T13:30:14.074Z,66.65
2023-01-15T13:32:48.535Z,68.97
2023-01-15T13:35:32.693Z,68.67
2023-01-15T13:38:01.961Z,68.92
2023-01-15T13:40:35.242Z,69.52
2023-01-15T13:43:02.815Z,69.78
2023-01-15T13:45:34.198Z,69.62
2023-01-15T13:48:39.321Z,67.90
2023-01-15T13:51:07.128Z,69.72
2023-01-15T13:53:45.392Z,69.75
2023-01-15T13:56:15.657Z,69.62
2023-01-15T13:58:57.619Z,69.38
2023-01-15T14:01:26.688Z,70.28
2023-01-15T14:03:58.827Z,69.47
2023-01-15T14:06:37.265Z,70.21
2023-01-15T14:09:05.282Z,70.14
2023-01-15T14:11:43.251Z,68.98
2023-01-15T14:14:37.782Z,68.41
2023-01-15T14:17:22.658Z,69.83
2023-01-15T14:19:58.321Z,68.12
2023-01-15T14:22:39.018Z,70.69
2023-01-15T14:25:29.595Z,69.65
2023-01-15T14:28:21.999Z,71.46
2023-01-15T14:31:04.807Z,71.09
2023-01-15T14:33:50.895Z,72.63
2023-01-15T14:36:19.496Z,72.29
2023-01-15T14:38:52.901Z,69.38
2023-01-15T14:41:27.083Z,72.37
2023-01-15T14:43:53.919Z,72.70
2023-01-15T14:46:26.838Z,72.33
2023-01-15T14:48:53.486Z,72.73
2023-01-15T14:51:27.697Z,72.80
2023-01-15T14:54:01.418Z,72.86
2023-01-15T14:56:34.852Z,70.98
2023-01-15T14:59:18.479Z,69.70
2023-01-15T15:01:51.406Z,71.59
2023-01-15T15:04:23.266Z,72.56
2023-01-15T15:07:02.951Z,71.00
2023-01-15T15:09:49.108Z,71.91
2023-01-15T15:12:29.760Z,71.92
2023-01-15T15:15:17.416Z,71.98
2023-01-15T15:18:01.103Z,69.81
2023-01-15T15:20:39.460Z,68.61
2023-01-15T15:23:14.966Z,70.85
2023-01-15T15:25:41.794Z,71.50
2023-01-15T15:28:12.133Z,71.65
2023-01-15T15:30:44.358Z,69.41
2023-01-15T15:33:17.198Z,72.35
2023-01-15T15:35:47.066Z,72.29
2023-01-15T15:38:19.010Z,71.55
2023-01-15T15:40:49.343Z,71.95
2023-01-15T15:43:52.844Z,71.94
2023-01-15T15:46:44.069Z,71.86
2023-01-15T15:49:11.081Z,72.55
2023-01-15T15:51:40.671Z,71.62
2023-01-15T15:54:17.976Z,71.27
2023-01-15T15:56:51.008Z,72.05
2023-01-15T15:59:27.776Z,72.30
2023-01-15T16:01:55.579Z,71.97
2023-01-15T16:04:22.949Z,72.85
2023-01-15T16:06:49.635Z,73.17
2023-01-15T16:09:22.299Z,69.60
2023-01-15T16:11:50.086Z,73.31
2023-01-15T16:14:17.285Z,72.79
2023-01-15T16:16:44.676Z,72.59
2023-01-15T16:19:17.865Z,72.60
2023-01-15T16:21:44.631Z,72.54
2023-01-15T16:24:26.754Z,71.67
2023-01-15T16:26:58.457Z,71.95
2023-01-15T16:29:27.349Z,72.15
2023-01-15T16:31:56.605Z,72.53
2023-01-15T16:34:25.799Z,72.20
2023-01-15T16:36:52.910Z,72.83
2023-01-15T16:39:22.370Z,72.42
2023-01-15T16:41:49.541Z,72.29
2023-01-15T16:44:26.297Z,71.91
2023-01-15T16:46:58.555Z,72.01
2023-01-15T16:49:27.861Z,72.16
2023-01-15T16:51:57.383Z,71.94
2023-01-15T16:54:29.677Z,71.71
2023-01-15T16:57:12.670Z,71.97
2023-01-15T16:59:56.151Z,72.08
2023-01-15T17:02:22.876Z,72.63
2023-01-15T17:04:52.067Z,72.21
2023-01-15T17:07:31.736Z,71.96
2023-01-15T17:09:59.736Z,72.53
2023-01-15T17:12:39.906Z,71.23
2023-01-15T17:15:35.825Z,72.47
2023-01-15T17:18:19.506Z,71.64
2023-01-15T17:20:46.146Z,72.67
2023-01-15T17:23:13.466Z,73.25
2023-01-15T17:25:39.997Z,72.44
2023-01-15T17:28:08.062Z,72.46
2023-01-15T17:30:34.790Z,72.50
2023-01-15T17:33:02.800Z,72.30
2023-01-15T17:35:31.144Z,72.16
2023-01-15T17:37:57.850Z,72.41
2023-01-15T17:40:24.794Z,72.21
2023-01-15T17:42:51.294Z,71.99
2023-01-15T17:45:23.645Z,71.21
2023-01-15T17:47:50.181Z,72.06
2023-01-15T17:50:17.511Z,71.85
2023-01-15T17:52:44.563Z,71.38
2023-01-15T17:55:34.447Z,70.36
2023-01-15T17:58:19.517Z,72.01
2023-01-15T18:01:05.029Z,72.18
2023-01-15T18:03:50.462Z,71.21
2023-01-15T18:06:17.735Z,71.51
2023-01-15T18:08:47.267Z,71.33
2023-01-15T18:11:13.785Z,71.38
2023-01-15T18:13:43.150Z,71.71
2023-01-15T18:16:10.150Z,70.95
2023-01-15T18:18:37.055Z,70.62
2023-01-15T18:21:04.058Z,71.50
2023-01-15T18:23:31.197Z,70.43
2023-01-15T18:26:02.963Z,69.71
2023-01-15T18:28:31.652Z,70.47
2023-01-15T18:30:58.231Z,70.90
2023-01-15T18:33:24.720Z,70.58
2023-01-15T18:35:51.277Z,70.86
2023-01-15T18:38:17.762Z,70.29
2023-01-15T18:40:44.249Z,70.15
2023-01-15T18:43:29.538Z,69.88
2023-01-15T18:46:34.687Z,70.56
2023-01-15T18:49:01.249Z,70.76
2023-01-15T18:51:27.777Z,71.08
2023-01-15T18:53:54.316Z,70.92
2023-01-15T18:56:39.042Z,70.63
2023-01-15T18:59:13.230Z,68.93
2023-01-15T19:01:40.929Z,70.37
2023-01-15T19:04:10.724Z,69.87
2023-01-15T19:06:40.597Z,69.27
2023-01-15T19:09:08.519Z,70.25
2023-01-15T19:11:35.120Z,70.50
2023-01-15T19:14:20.143Z,69.86
2023-01-15T19:17:05.153Z,69.72
2023-01-15T19:19:31.719Z,69.59
2023-01-15T19:22:16.909Z,70.16
2023-01-15T19:24:43.544Z,70.22
2023-01-15T19:27:10.150Z,70.26
2023-01-15T19:29:36.659Z,70.18
2023-01-15T19:32:04.150Z,70.03
2023-01-15T19:34:34.067Z,69.78
2023-01-15T19:37:01.030Z,70.40
2023-01-15T19:39:28.639Z,69.77
2023-01-15T19:42:15.140Z,69.76
2023-01-15T19:45:00.251Z,69.46
2023-01-15T19:47:48.386Z,70.25
2023-01-15T19:50:19.349Z,69.54
2023-01-15T19:52:53.737Z,70.01
2023-01-15T19:55:21.521Z,69.84
2023-01-15T19:57:55.023Z,70.07
2023-01-15T20:00:22.416Z,69.88
2023-01-15T20:02:49.316Z,70.58
2023-01-15T20:05:16.379Z,70.31
2023-01-15T20:07:43.363Z,69.67
2023-01-15T20:10:13.657Z,70.12
2023-01-15T20:12:59.510Z,70.23
2023-01-15T20:15:26.393Z,69.68
2023-01-15T20:17:53.293Z,70.59
2023-01-15T20:20:20.461Z,70.00
2023-01-15T20:22:47.008Z,69.90
2023-01-15T20:25:13.545Z,70.10
2023-01-15T20:27:40.785Z,69.78
2023-01-15T20:30:10.433Z,69.74
2023-01-15T20:32:38.044Z,69.73
2023-01-15T20:35:06.340Z,69.98
2023-01-15T20:37:32.983Z,70.33
2023-01-15T20:39:59.579Z,70.50
2023-01-15T20:42:46.369Z,70.28
2023-01-15T20:45:15.167Z,70.40
2023-01-15T20:48:00.951Z,70.47
2023-01-15T20:50:36.111Z,68.93
2023-01-15T20:53:04.238Z,70.07
2023-01-15T20:55:45.651Z,71.29
2023-01-15T20:58:20.806Z,70.82
2023-01-15T21:00:47.426Z,70.99
2023-01-15T21:03:14.083Z,70.64
2023-01-15T21:05:40.663Z,70.12
2023-01-15T21:08:07.206Z,70.26
2023-01-15T21:10:33.688Z,70.82
2023-01-15T21:13:00.255Z,70.64
2023-01-15T21:15:26.758Z,70.48
2023-01-15T21:17:53.222Z,70.79
2023-01-15T21:20:19.943Z,70.49
2023-01-15T21:22:47.495Z,70.94
2023-01-15T21:25:14.082Z,70.11
2023-01-15T21:27:40.901Z,70.31
2023-01-15T21:30:08.612Z,70.83
2023-01-15T21:32:35.106Z,71.62
2023-01-15T21:35:01.765Z,71.16
2023-01-15T21:37:28.339Z,71.06
2023-01-15T21:39:54.817Z,71.13
2023-01-15T21:42:40.698Z,70.72
2023-01-15T21:45:08.056Z,71.56
2023-01-15T21:47:36.832Z,71.38
2023-01-15T21:50:05.172Z,71.10
2023-01-15T21:52:33.516Z,71.56
2023-01-15T21:55:00.362Z,71.05
2023-01-15T21:57:28.969Z,70.97
2023-01-15T21:59:55.540Z,71.01
2023-01-15T22:02:23.453Z,70.99
2023-01-15T22:04:50.250Z,71.33
2023-01-15T22:07:17.889Z,71.41
2023-01-15T22:09:44.528Z,71.43
2023-01-15T22:12:12.409Z,71.38
2023-01-15T22:14:38.916Z,70.84
2023-01-15T22:17:05.764Z,71.34
2023-01-15T22:19:32.946Z,71.60
2023-01-15T22:22:01.969Z,71.75
2023-01-15T22:24:33.049Z,70.96
2023-01-15T22:27:00.291Z,71.25
2023-01-15T22:29:29.914Z,72.37
2023-01-15T22:31:56.839Z,72.88
2023-01-15T22:34:24.066Z,73.10
2023-01-15T22:36:51.340Z,72.94
2023-01-15T22:39:18.441Z,72.18
2023-01-15T22:42:04.196Z,72.32
2023-01-15T22:44:30.913Z,72.33
2023-01-15T22:46:57.996Z,72.78
2023-01-15T22:49:24.851Z,72.67
2023-01-15T22:51:51.741Z,72.65
2023-01-15T22:54:19.247Z,72.85
2023-01-15T22:56:46.165Z,72.88
2023-01-15T22:59:13.682Z,72.74
2023-01-15T23:01:40.630Z,73.14
2023-01-15T23:04:21.173Z,71.73
2023-01-15T23:06:48.977Z,73.51
2023-01-15T23:09:15.546Z,73.21
2023-01-15T23:11:42.211Z,73.45
2023-01-15T23:14:10.722Z,73.10
2023-01-15T23:16:37.219Z,73.24
2023-01-15T23:19:04.020Z,73.60
2023-01-15T23:21:30.615Z,73.97
2023-01-15T23:23:59.232Z,73.34
2023-01-15T23:26:27.809Z,73.11
2023-01-15T23:28:54.991Z,73.25
2023-01-15T23:31:21.607Z,72.90
2023-01-15T23:33:48.201Z,73.12
2023-01-15T23:36:15.049Z,73.17
2023-01-15T23:38:42.919Z,73.25
2023-01-15T23:41:14.224Z,73.11
2023-01-15T23:44:19.723Z,73.11
2023-01-15T23:46:48.130Z,73.51
2023-01-15T23:49:15.965Z,73.54
2023-01-15T23:51:42.664Z,73.96
2023-01-15T23:54:09.254Z,73.58
2023-01-15T23:56:35.835Z,73.39
2023-01-15T23:59:02.371Z,72.79
